CheckWX is a tool to help pilots better visualize weather data.  It is not intended as a substitute for an official pre-flight weather briefing.

08:49:03 UTC

LFMO METAR
Orange-Caritat (BA 115) Air Base Airport
Orange/Caritat, France
Current

49 mins ago

LFMO 190800Z AUTO VRB02KT 9999 BKN043 03/03 Q1024 NOSIG
Observed
Feb-19 @ 08:00 UTC
Wind
  • Variable at 2 KTS
Visibility
10,000+ meters
Flight Rules
VFR
Cloud Levels
  • Broken at 4,300' AGL
Temperature
C / 37°F
Dewpoint
C / 37°F
Humidity
100%
Altimeter
30.24" Hg
Pressure
1023.92 hPa
Previous

1 hour ago

LFMO 190730Z AUTO 00000KT 3900 1400 R14/1700U BR NSC 00/00 Q1024 BECMG 9999 NSW
Observed
Feb-19 @ 07:30 UTC
Visibility
3,895 meters
Flight Rules
IFR
Conditions
Mist
Cloud Levels
  • Clear skies
Temperature
C / 32°F
Dewpoint
C / 32°F
Humidity
100%
Altimeter
30.24" Hg
Pressure
1023.92 hPa
Previous

2 hours ago

LFMO 190700Z AUTO 00000KT 3100 0800 R14/P2000 BCFG NSC M01/M02 Q1023 BECMG 9999 NSW
Observed
Feb-19 @ 07:00 UTC
Visibility
3,106 meters
Flight Rules
IFR
Conditions
Patches of Fog
Cloud Levels
  • Clear skies
Temperature
-1°C / 30°F
Dewpoint
-2°C / 28°F
Humidity
93%
Altimeter
30.21" Hg
Pressure
1022.92 hPa